Time,TemperatureF,DewpointF,PressureIn,WindDirection,WindDirectionDegrees,WindSpeedMPH,WindSpeedGustMPH,Humidity,HourlyPrecipIn,Conditions,Clouds,dailyrainin,SoftwareType,DateUTC
2013-09-09 00:13:00,73.0,72.0,29.95,ESE,117,0.0,0.0,96,0.00,,,0.00,,2013-09-09 05:13:00,
2013-09-09 00:23:00,73.0,72.0,29.95,ESE,117,0.0,0.0,96,0.00,,,0.00,,2013-09-09 05:23:00,
2013-09-09 00:53:00,72.0,71.0,29.95,ESE,117,0.0,0.0,97,0.00,,,0.00,,2013-09-09 05:53:00,
2013-09-09 01:12:00,71.0,70.0,29.94,ESE,117,0.0,0.0,97,0.00,,,0.00,,2013-09-09 06:12:00,
2013-09-09 01:21:00,71.0,70.0,29.94,ESE,117,0.0,0.0,97,0.00,,,0.00,,2013-09-09 06:21:00,
2013-09-09 01:32:00,71.0,70.0,29.94,ESE,117,0.0,0.0,97,0.00,,,0.00,,2013-09-09 06:32:00,
2013-09-09 01:52:00,71.0,70.0,29.94,ESE,117,0.0,0.0,97,0.00,,,0.00,,2013-09-09 06:52:00,
2013-09-09 02:22:00,71.0,70.0,29.95,ESE,117,0.0,0.0,97,0.00,,,0.00,,2013-09-09 07:22:00,
2013-09-09 02:52:00,71.0,70.0,29.95,ESE,117,0.0,0.0,97,0.00,,,0.00,,2013-09-09 07:52:00,
2013-09-09 03:22:00,70.0,69.0,29.95,ESE,117,0.0,0.0,98,0.00,,,0.00,,2013-09-09 08:22:00,
2013-09-09 03:52:00,69.0,68.0,29.95,ESE,117,0.0,0.0,98,0.00,,,0.00,,2013-09-09 08:52:00,
2013-09-09 04:22:00,69.0,68.0,29.96,ESE,117,0.0,0.0,98,0.00,,,0.00,,2013-09-09 09:22:00,
2013-09-09 04:53:00,69.0,68.0,29.96,ESE,117,0.0,0.0,98,0.00,,,0.00,,2013-09-09 09:53:00,
2013-09-09 05:23:00,69.0,68.0,29.97,ESE,117,0.0,0.0,98,0.00,,,0.00,,2013-09-09 10:23:00,
2013-09-09 05:52:00,68.0,67.0,29.97,ESE,117,0.0,0.0,98,0.00,,,0.00,,2013-09-09 10:52:00,
2013-09-09 06:22:00,68.0,67.0,29.98,ESE,117,0.0,0.0,98,0.00,,,0.00,,2013-09-09 11:22:00,
2013-09-09 06:52:00,68.0,67.0,29.98,ESE,117,0.0,0.0,98,0.00,,,0.00,,2013-09-09 11:52:00,
2013-09-09 07:12:00,68.0,67.0,29.99,ESE,117,0.0,0.0,98,0.00,,,0.00,,2013-09-09 12:12:00,
2013-09-09 07:22:00,68.0,67.0,29.99,ESE,117,0.0,0.0,98,0.00,,,0.00,,2013-09-09 12:22:00,
2013-09-09 07:52:00,69.0,68.0,30.01,ESE,117,0.0,0.0,98,0.00,,,0.00,,2013-09-09 12:52:00,
2013-09-09 08:21:00,72.0,71.0,30.01,ESE,117,0.0,0.0,98,0.00,,,0.00,,2013-09-09 13:21:00,
2013-09-09 08:52:00,73.0,72.0,30.01,ESE,117,0.0,0.0,98,0.00,,,0.00,,2013-09-09 13:52:00,
2013-09-09 09:22:00,79.0,75.0,30.01,East,86,0.0,2.0,88,0.00,,,0.00,,2013-09-09 14:22:00,
2013-09-09 09:52:00,80.0,75.0,30.01,East,86,0.0,0.0,84,0.00,,,0.00,,2013-09-09 14:52:00,
2013-09-09 10:22:00,86.0,77.0,30.00,SSE,166,2.0,6.0,74,0.00,,,0.00,,2013-09-09 15:22:00,
2013-09-09 10:53:00,87.0,76.0,29.99,SSE,156,3.0,8.0,70,0.00,,,0.00,,2013-09-09 15:53:00,
2013-09-09 11:24:00,86.0,75.0,29.98,East,95,1.0,8.0,69,0.00,,,0.00,,2013-09-09 16:24:00,
2013-09-09 11:54:00,88.0,73.0,29.98,SSE,151,5.0,9.0,61,0.00,,,0.00,,2013-09-09 16:54:00,
2013-09-09 12:12:00,89.0,72.0,29.97,SSE,151,7.0,12.0,57,0.00,,,0.00,,2013-09-09 17:12:00,
2013-09-09 12:23:00,89.0,72.0,29.97,SSE,151,7.0,12.0,57,0.00,,,0.00,,2013-09-09 17:23:00,
2013-09-09 12:52:00,90.0,72.0,29.96,SSE,150,4.0,12.0,56,0.00,,,0.00,,2013-09-09 17:52:00,
2013-09-09 13:21:00,91.0,72.0,29.96,SSE,164,3.0,13.0,54,0.00,,,0.00,,2013-09-09 18:21:00,
2013-09-09 13:52:00,90.0,71.0,29.95,SSE,150,5.0,12.0,53,0.00,,,0.00,,2013-09-09 18:52:00,
2013-09-09 14:22:00,92.0,71.0,29.94,SW,220,1.0,10.0,50,0.00,,,0.00,,2013-09-09 19:22:00,
2013-09-09 14:52:00,92.0,71.0,29.93,SSE,162,3.0,9.0,50,0.00,,,0.00,,2013-09-09 19:52:00,
2013-09-09 15:12:00,93.0,70.0,29.92,SSE,158,2.0,12.0,48,0.00,,,0.00,,2013-09-09 20:12:00,
2013-09-09 15:21:00,93.0,70.0,29.92,SSE,158,2.0,12.0,48,0.00,,,0.00,,2013-09-09 20:21:00,
2013-09-09 15:53:00,94.0,72.0,29.91,SE,138,2.0,8.0,49,0.00,,,0.00,,2013-09-09 20:53:00,
2013-09-09 16:12:00,93.0,70.0,29.90,SSE,166,3.0,9.0,47,0.00,,,0.00,,2013-09-09 21:12:00,
2013-09-09 16:22:00,93.0,70.0,29.90,SSE,166,3.0,9.0,47,0.00,,,0.00,,2013-09-09 21:22:00,
2013-09-09 16:54:00,93.0,70.0,29.89,SE,138,2.0,8.0,47,0.00,,,0.00,,2013-09-09 21:54:00,
2013-09-09 17:05:00,93.0,70.0,29.89,SE,138,2.0,8.0,47,0.00,,,0.00,,2013-09-09 22:05:00,
2013-09-09 17:24:00,93.0,72.0,29.89,SSE,150,0.0,8.0,50,0.00,,,0.00,,2013-09-09 22:24:00,
2013-09-09 17:54:00,91.0,70.0,29.89,SSE,160,0.0,7.0,50,0.00,,,0.00,,2013-09-09 22:54:00,
2013-09-09 18:12:00,90.0,70.0,29.89,SSE,155,1.0,7.0,52,0.00,,,0.00,,2013-09-09 23:12:00,
2013-09-09 18:22:00,90.0,70.0,29.89,SSE,155,1.0,7.0,52,0.00,,,0.00,,2013-09-09 23:22:00,
2013-09-09 18:52:00,89.0,71.0,29.90,SE,144,0.0,8.0,56,0.00,,,0.00,,2013-09-09 23:52:00,
2013-09-09 19:21:00,87.0,72.0,29.91,ESE,123,0.0,0.0,61,0.00,,,0.00,,2013-09-10 00:21:00,
2013-09-09 19:52:00,86.0,72.0,29.91,ESE,123,0.0,0.0,63,0.00,,,0.00,,2013-09-10 00:52:00,
2013-09-09 20:11:00,85.0,72.0,29.93,SSE,152,0.0,2.0,66,0.00,,,0.00,,2013-09-10 01:11:00,
2013-09-09 20:21:00,85.0,72.0,29.93,SSE,152,0.0,2.0,66,0.00,,,0.00,,2013-09-10 01:21:00,
2013-09-09 20:53:00,82.0,73.0,29.94,SSE,151,0.0,0.0,75,0.00,,,0.00,,2013-09-10 01:53:00,
2013-09-09 21:02:00,82.0,73.0,29.94,SSE,151,0.0,0.0,75,0.00,,,0.00,,2013-09-10 02:02:00,
2013-09-09 21:22:00,80.0,73.0,29.96,SSE,151,0.0,0.0,80,0.00,,,0.00,,2013-09-10 02:22:00,
2013-09-09 21:52:00,79.0,74.0,29.97,SSE,151,0.0,0.0,85,0.00,,,0.00,,2013-09-10 02:52:00,
2013-09-09 22:02:00,79.0,74.0,29.97,SSE,151,0.0,0.0,85,0.00,,,0.00,,2013-09-10 03:02:00,
2013-09-09 22:22:00,78.0,74.0,29.98,SSE,151,0.0,0.0,87,0.00,,,0.00,,2013-09-10 03:22:00,
2013-09-09 22:54:00,77.0,74.0,29.98,SSE,151,0.0,0.0,90,0.00,,,0.00,,2013-09-10 03:54:00,
2013-09-09 23:13:00,76.0,73.0,29.98,SSE,151,0.0,0.0,91,0.00,,,0.00,,2013-09-10 04:13:00,
2013-09-09 23:24:00,76.0,73.0,29.98,SSE,151,0.0,0.0,91,0.00,,,0.00,,2013-09-10 04:24:00,
2013-09-09 23:53:00,75.0,73.0,29.98,SSE,151,0.0,0.0,94,0.00,,,0.00,,2013-09-10 04:53:00,